| time (UTC) | temp C | wind direction | speed KPH | gust KPH | rain 1hr cm | rain 24hr cm | rain mn cm | humidity % | barometer mb |
| 20260507200029 | 8 | 360 | 0.0 | 1.6 | 0.00 | 0.00 | 0.00 | 86 | 1019.1 |
| 20260507194527 | 8 | 360 | 1.6 | 4.8 | 0.00 | 0.00 | 0.00 | 86 | 1018.9 |
| 20260507193030 | 8 | 360 | 0.0 | 4.8 | 0.00 | 0.00 | 0.00 | 87 | 1018.8 |
| 20260507191526 | 9 | 360 | 1.6 | 6.4 | 0.00 | 0.00 | 0.00 | 88 | 1018.6 |
| 20260507190022 | 10 | 360 | 3.2 | 8.0 | 0.00 | 0.00 | 0.00 | 86 | 1018.5 |
| 20260507184521 | 10 | 360 | 3.2 | 11.3 | 0.00 | 0.00 | 0.00 | 85 | 1018.3 |
| 20260507183033 | 10 | 360 | 8.0 | 17.7 | 0.00 | 0.00 | 0.00 | 84 | 1018.2 |
| 20260507181519 | 11 | 360 | 9.7 | 17.7 | 0.00 | 0.00 | 0.00 | 84 | 1018.2 |
| 20260507180017 | 11 | 360 | 12.9 | 20.9 | 0.00 | 0.00 | 0.00 | 86 | 1017.9 |
| 20260507174515 | 11 | 360 | 9.7 | 20.9 | 0.00 | 0.00 | 0.00 | 85 | 1017.8 |
| 20260507173014 | 12 | 360 | 14.5 | 20.9 | 0.00 | 0.00 | 0.00 | 83 | 1017.7 |
| 20260507171516 | 12 | 360 | 16.1 | 22.5 | 0.00 | 0.00 | 0.00 | 84 | 1017.6 |
| 20260507170012 | 12 | 360 | 19.3 | 24.1 | 0.00 | 0.00 | 0.00 | 82 | 1017.5 |
| 20260507164511 | 12 | 360 | 14.5 | 22.5 | 0.00 | 0.00 | 0.00 | 83 | 1017.5 |
| 20260507163011 | 12 | 360 | 14.5 | 24.1 | 0.00 | 0.00 | 0.00 | 83 | 1017.3 |
| 20260507161510 | 12 | 360 | 12.9 | 22.5 | 0.00 | 0.00 | 0.00 | 82 | 1017.4 |
| 20260507160025 | 12 | 360 | 14.5 | 20.9 | 0.00 | 0.00 | 0.00 | 79 | 1017.5 |
| 20260507154508 | 12 | 360 | 11.3 | 19.3 | 0.00 | 0.00 | 0.00 | 79 | 1017.5 |
| 20260507153006 | 12 | 360 | 9.7 | 17.7 | 0.00 | 0.00 | 0.00 | 80 | 1017.5 |
| 20260507151504 | 12 | 360 | 11.3 | 19.3 | 0.00 | 0.00 | 0.00 | 78 | 1017.5 |
| 20260507150101 | 12 | 360 | 12.9 | 19.3 | 0.00 | 0.00 | 0.00 | 79 | 1017.5 |
| 20260507144603 | 12 | 360 | 16.1 | 20.9 | 0.00 | 0.00 | 0.00 | 79 | 1017.5 |
| 20260507143108 | 12 | 360 | 12.9 | 22.5 | 0.00 | 0.00 | 0.00 | 78 | 1017.5 |
| 20260507141608 | 12 | 360 | 9.7 | 19.3 | 0.00 | 0.00 | 0.00 | 79 | 1017.5 |
| 20260507140050 | 12 | 360 | 12.9 | 19.3 | 0.00 | 0.00 | 0.00 | 80 | 1017.5 |
| 20260507134548 | 13 | 360 | 12.9 | 22.5 | 0.00 | 0.00 | 0.00 | 81 | 1017.5 |
| 20260507133147 | 13 | 360 | 14.5 | 22.5 | 0.00 | 0.00 | 0.00 | 80 | 1017.5 |
| 20260507131554 | 13 | 360 | 16.1 | 20.9 | 0.00 | 0.00 | 0.00 | 80 | 1017.4 |
| 20260507130045 | 13 | 360 | 14.5 | 22.5 | 0.00 | 0.00 | 0.00 | 80 | 1017.4 |
| 20260507124540 | 13 | 360 | 11.3 | 20.9 | 0.00 | 0.00 | 0.00 | 79 | 1017.2 |
| 20260507123043 | 13 | 360 | 11.3 | 19.3 | 0.00 | 0.00 | 0.00 | 80 | 1017.1 |
| 20260507121543 | 13 | 360 | 11.3 | 17.7 | 0.00 | 0.00 | 0.00 | 80 | 1017.1 |
| 20260507120036 | 13 | 360 | 11.3 | 17.7 | 0.00 | 0.00 | 0.00 | 81 | 1017.0 |
| 20260507114536 | 12 | 360 | 12.9 | 17.7 | 0.00 | 0.00 | 0.00 | 81 | 1017.0 |
| 20260507113035 | 13 | 360 | 12.9 | 17.7 | 0.00 | 0.00 | 0.00 | 81 | 1017.0 |
| 20260507111533 | 13 | 360 | 9.7 | 14.5 | 0.00 | 0.00 | 0.00 | 78 | 1017.0 |
| 20260507110032 | 13 | 360 | 9.7 | 16.1 | 0.00 | 0.00 | 0.00 | 79 | 1017.0 |
| 20260507104531 | 13 | 360 | 9.7 | 16.1 | 0.00 | 0.00 | 0.00 | 79 | 1016.9 |
| 20260507103030 | 12 | 360 | 8.0 | 17.7 | 0.00 | 0.00 | 0.00 | 79 | 1016.9 |
| 20260507101530 | 12 | 360 | 8.0 | 17.7 | 0.00 | 0.00 | 0.00 | 80 | 1016.9 |
| 20260507100035 | 13 | 360 | 6.4 | 12.9 | 0.00 | 0.00 | 0.00 | 81 | 1016.7 |
| 20260507094525 | 12 | 360 | 9.7 | 14.5 | 0.00 | 0.00 | 0.00 | 82 | 1016.6 |
| 20260507093025 | 13 | 360 | 8.0 | 11.3 | 0.00 | 0.00 | 0.00 | 81 | 1016.6 |
| 20260507091524 | 12 | 360 | 6.4 | 11.3 | 0.00 | 0.00 | 0.00 | 82 | 1016.5 |
| 20260507090022 | 12 | 360 | 4.8 | 9.7 | 0.00 | 0.00 | 0.00 | 82 | 1016.4 |
| 20260507084521 | 12 | 360 | 6.4 | 9.7 | 0.00 | 0.00 | 0.00 | 80 | 1016.3 |
| 20260507083019 | 13 | 360 | 4.8 | 8.0 | 0.00 | 0.00 | 0.00 | 81 | 1016.2 |
| 20260507081516 | 12 | 360 | 3.2 | 4.8 | 0.00 | 0.00 | 0.00 | 80 | 1016.0 |
| 20260507080013 | 12 | 360 | 1.6 | 6.4 | 0.00 | 0.00 | 0.00 | 80 | 1016.0 |
| 20260507074510 | 12 | 360 | 1.6 | 9.7 | 0.00 | 0.00 | 0.00 | 79 | 1015.7 |
| 20260507073007 | 11 | 360 | 0.0 | 6.4 | 0.00 | 0.00 | 0.00 | 77 | 1015.7 |
| 20260507071502 | 10 | 360 | 4.8 | 11.3 | 0.00 | 0.00 | 0.00 | 77 | 1015.5 |
| 20260507070000 | 10 | 360 | 4.8 | 14.5 | 0.00 | 0.00 | 0.00 | 77 | 1015.4 |
| 20260507064634 | 10 | 360 | 6.4 | 14.5 | 0.00 | 0.00 | 0.00 | 77 | 1015.4 |
| 20260507063114 | 10 | 360 | 9.7 | 14.5 | 0.00 | 0.00 | 0.00 | 76 | 1015.2 |
| 20260507061555 | 10 | 360 | 8.0 | 14.5 | 0.00 | 0.00 | 0.00 | 75 | 1015.2 |
| 20260507060110 | 9 | 360 | 8.0 | 14.5 | 0.00 | 0.00 | 0.00 | 75 | 1015.1 |
| 20260507054554 | 9 | 360 | 8.0 | 14.5 | 0.00 | 0.00 | 0.00 | 75 | 1015.1 |
| 20260507053047 | 8 | 360 | 9.7 | 12.9 | 0.00 | 0.00 | 0.00 | 76 | 1015.0 |
| 20260507051559 | 8 | 360 | 8.0 | 11.3 | 0.00 | 0.00 | 0.00 | 78 | 1014.9 |
| 20260507050047 | 7 | 360 | 8.0 | 12.9 | 0.00 | 0.00 | 0.00 | 85 | 1014.9 |
| 20260507044541 | 4 | 360 | 0.0 | 1.6 | 0.00 | 0.00 | 0.00 | 84 | 1014.9 |
| 20260507043041 | 3 | 360 | 0.0 | 3.2 | 0.00 | 0.00 | 0.00 | 83 | 1014.7 |
| 20260507041539 | 3 | 360 | 0.0 | 4.8 | 0.00 | 0.00 | 0.00 | 82 | 1014.6 |
| 20260507040037 | 3 | 360 | 1.6 | 6.4 | 0.00 | 0.00 | 0.00 | 81 | 1014.5 |
| 20260507034536 | 3 | 360 | 0.0 | 1.6 | 0.00 | 0.00 | 0.00 | 81 | 1014.5 |
| 20260507033035 | 3 | 360 | 0.0 | 1.6 | 0.00 | 0.00 | 0.00 | 81 | 1014.4 |
| 20260507031535 | 2 | 360 | 0.0 | 8.0 | 0.00 | 0.00 | 0.00 | 81 | 1014.3 |
| 20260507030036 | 2 | 360 | 4.8 | 8.0 | 0.00 | 0.00 | 0.00 | 82 | 1014.3 |
| 20260507024529 | 2 | 360 | 1.6 | 6.4 | 0.00 | 0.00 | 0.00 | 82 | 1014.2 |
| 20260507023026 | 3 | 360 | 0.0 | 1.6 | 0.00 | 0.00 | 0.00 | 84 | 1014.1 |
| 20260507021522 | 3 | 360 | 0.0 | 8.0 | 0.00 | 0.00 | 0.00 | 85 | 1014.1 |
| 20260507020020 | 5 | 360 | 0.0 | 1.6 | 0.00 | 0.00 | 0.00 | 83 | 1014.2 |
| 20260507014514 | 7 | 360 | 0.0 | 6.4 | 0.00 | 0.00 | 0.00 | 84 | 1014.0 |
| 20260507013014 | 7 | 360 | 1.6 | 6.4 | 0.00 | 0.00 | 0.00 | 85 | 1013.9 |
| 20260507011510 | 7 | 360 | 6.4 | 11.3 | 0.00 | 0.00 | 0.00 | 85 | 1013.9 |
| 20260507010010 | 7 | 360 | 8.0 | 14.5 | 0.00 | 0.00 | 0.00 | 85 | 1013.8 |
| 20260507004507 | 7 | 360 | 9.7 | 14.5 | 0.00 | 0.00 | 0.00 | 85 | 1013.8 |
| 20260507003007 | 7 | 360 | 6.4 | 12.9 | 0.00 | 0.00 | 0.00 | 86 | 1013.7 |
| 20260507001508 | 7 | 360 | 8.0 | 14.5 | 0.00 | 0.00 | 0.00 | 85 | 1013.7 |
| 20260507000003 | 7 | 360 | 8.0 | 14.5 | 0.00 | 0.00 | 0.00 | 85 | 1013.6 |
| 20260506234601 | 7 | 360 | 8.0 | 12.9 | 0.00 | 0.00 | 0.00 | 85 | 1013.6 |
| 20260506233100 | 7 | 360 | 8.0 | 14.5 | 0.00 | 0.00 | 0.00 | 86 | 1013.5 |
| 20260506231610 | 7 | 360 | 8.0 | 14.5 | 0.00 | 0.00 | 0.00 | 88 | 1013.6 |
| 20260506230110 | 7 | 360 | 4.8 | 12.9 | 0.00 | 0.00 | 0.00 | 88 | 1013.4 |
| 20260506224553 | 7 | 360 | 8.0 | 19.3 | 0.00 | 0.00 | 0.00 | 89 | 1013.4 |
| 20260506223050 | 8 | 360 | 11.3 | 17.7 | 0.00 | 0.00 | 0.00 | 90 | 1013.3 |
| 20260506221608 | 8 | 360 | 14.5 | 20.9 | 0.00 | 0.00 | 0.00 | 90 | 1013.3 |
| 20260506214547 | 8 | 360 | 16.1 | 19.3 | 0.00 | 0.00 | 0.00 | 90 | 1013.2 |
| 20260506213100 | 8 | 360 | 12.9 | 20.9 | 0.00 | 0.00 | 0.00 | 90 | 1013.1 |
| 20260506211542 | 8 | 360 | 12.9 | 19.3 | 0.00 | 0.00 | 0.00 | 89 | 1013.0 |
| 20260506210051 | 9 | 360 | 14.5 | 22.5 | 0.00 | 0.00 | 0.00 | 88 | 1013.0 |
| 20260506204539 | 9 | 360 | 14.5 | 20.9 | 0.00 | 0.00 | 0.00 | 86 | 1012.9 |
| 20260506203037 | 9 | 360 | 4.8 | 14.5 | 0.00 | 0.00 | 0.00 | 77 | 1012.9 |
| 20260506201539 | 9 | 360 | 3.2 | 11.3 | 0.00 | 0.00 | 0.00 | 74 | 1012.7 |
| 20260506200036 | 10 | 360 | 6.4 | 12.9 | 0.00 | 0.00 | 0.00 | 73 | 1012.6 |